sensor_id;sensor_type;location;lat;lon;timestamp;P1;durP1;ratioP1;P2;durP2;ratioP2
77016;SDS011;65949;53.132;17.930;2023-05-07T00:00:08;20.60;;;10.70;;
77016;SDS011;65949;53.132;17.930;2023-05-07T00:02:55;18.20;;;9.90;;
77016;SDS011;65949;53.132;17.930;2023-05-07T00:05:22;18.90;;;10.40;;
77016;SDS011;65949;53.132;17.930;2023-05-07T00:07:48;19.30;;;11.00;;
77016;SDS011;65949;53.132;17.930;2023-05-07T00:10:15;18.00;;;10.00;;
77016;SDS011;65949;53.132;17.930;2023-05-07T00:12:42;17.90;;;9.40;;
77016;SDS011;65949;53.132;17.930;2023-05-07T00:15:09;20.50;;;10.50;;
77016;SDS011;65949;53.132;17.930;2023-05-07T00:17:36;19.50;;;10.20;;
77016;SDS011;65949;53.132;17.930;2023-05-07T00:20:03;20.20;;;9.50;;
77016;SDS011;65949;53.132;17.930;2023-05-07T00:22:31;17.70;;;9.60;;
77016;SDS011;65949;53.132;17.930;2023-05-07T00:24:58;17.40;;;9.30;;
77016;SDS011;65949;53.132;17.930;2023-05-07T00:27:25;19.40;;;9.30;;
77016;SDS011;65949;53.132;17.930;2023-05-07T00:29:52;18.00;;;9.60;;
77016;SDS011;65949;53.132;17.930;2023-05-07T00:32:18;18.60;;;9.50;;
77016;SDS011;65949;53.132;17.930;2023-05-07T00:34:45;19.00;;;10.50;;
77016;SDS011;65949;53.132;17.930;2023-05-07T00:37:12;19.40;;;10.10;;
77016;SDS011;65949;53.132;17.930;2023-05-07T00:39:38;18.20;;;10.10;;
77016;SDS011;65949;53.132;17.930;2023-05-07T00:42:05;19.10;;;10.20;;
77016;SDS011;65949;53.132;17.930;2023-05-07T00:44:32;20.10;;;10.70;;
77016;SDS011;65949;53.132;17.930;2023-05-07T00:46:59;17.90;;;9.30;;
77016;SDS011;65949;53.132;17.930;2023-05-07T00:49:38;17.50;;;9.20;;
77016;SDS011;65949;53.132;17.930;2023-05-07T00:52:08;19.40;;;10.00;;
77016;SDS011;65949;53.132;17.930;2023-05-07T00:54:37;19.10;;;10.60;;
77016;SDS011;65949;53.132;17.930;2023-05-07T00:57:04;19.00;;;10.50;;
77016;SDS011;65949;53.132;17.930;2023-05-07T00:59:32;20.10;;;10.50;;
77016;SDS011;65949;53.132;17.930;2023-05-07T01:01:59;22.20;;;11.00;;
77016;SDS011;65949;53.132;17.930;2023-05-07T01:04:26;21.30;;;10.30;;
77016;SDS011;65949;53.132;17.930;2023-05-07T01:06:53;20.10;;;10.40;;
77016;SDS011;65949;53.132;17.930;2023-05-07T01:09:23;18.20;;;10.00;;
77016;SDS011;65949;53.132;17.930;2023-05-07T01:11:52;20.10;;;9.10;;
77016;SDS011;65949;53.132;17.930;2023-05-07T01:14:19;19.50;;;10.20;;
77016;SDS011;65949;53.132;17.930;2023-05-07T01:16:47;17.50;;;9.40;;
77016;SDS011;65949;53.132;17.930;2023-05-07T01:19:17;22.40;;;10.20;;
77016;SDS011;65949;53.132;17.930;2023-05-07T01:21:46;19.10;;;9.60;;
77016;SDS011;65949;53.132;17.930;2023-05-07T01:24:15;20.60;;;10.10;;
77016;SDS011;65949;53.132;17.930;2023-05-07T01:26:43;17.60;;;8.90;;
77016;SDS011;65949;53.132;17.930;2023-05-07T01:29:12;18.10;;;9.30;;
77016;SDS011;65949;53.132;17.930;2023-05-07T01:31:39;18.00;;;10.20;;
77016;SDS011;65949;53.132;17.930;2023-05-07T01:34:08;20.90;;;10.80;;
77016;SDS011;65949;53.132;17.930;2023-05-07T01:36:39;18.70;;;10.00;;
77016;SDS011;65949;53.132;17.930;2023-05-07T01:39:08;19.50;;;10.10;;
77016;SDS011;65949;53.132;17.930;2023-05-07T01:41:37;22.10;;;10.40;;
77016;SDS011;65949;53.132;17.930;2023-05-07T01:44:03;18.80;;;10.40;;
77016;SDS011;65949;53.132;17.930;2023-05-07T01:46:32;19.50;;;9.70;;
77016;SDS011;65949;53.132;17.930;2023-05-07T01:48:59;20.80;;;9.90;;
77016;SDS011;65949;53.132;17.930;2023-05-07T01:51:26;20.90;;;10.00;;
77016;SDS011;65949;53.132;17.930;2023-05-07T01:53:53;18.50;;;10.30;;
77016;SDS011;65949;53.132;17.930;2023-05-07T01:56:20;18.20;;;10.30;;
77016;SDS011;65949;53.132;17.930;2023-05-07T01:58:47;19.70;;;9.60;;
77016;SDS011;65949;53.132;17.930;2023-05-07T02:01:14;20.10;;;9.40;;
77016;SDS011;65949;53.132;17.930;2023-05-07T02:03:41;17.00;;;9.20;;
77016;SDS011;65949;53.132;17.930;2023-05-07T02:06:11;20.20;;;9.90;;
77016;SDS011;65949;53.132;17.930;2023-05-07T02:08:39;17.80;;;9.10;;
77016;SDS011;65949;53.132;17.930;2023-05-07T02:11:06;20.50;;;9.70;;
77016;SDS011;65949;53.132;17.930;2023-05-07T02:13:34;19.30;;;9.30;;
77016;SDS011;65949;53.132;17.930;2023-05-07T02:16:01;17.80;;;9.00;;
77016;SDS011;65949;53.132;17.930;2023-05-07T02:18:28;19.70;;;8.90;;
77016;SDS011;65949;53.132;17.930;2023-05-07T02:20:55;19.00;;;9.90;;
77016;SDS011;65949;53.132;17.930;2023-05-07T02:23:22;19.80;;;9.80;;
77016;SDS011;65949;53.132;17.930;2023-05-07T02:25:49;19.20;;;9.40;;
77016;SDS011;65949;53.132;17.930;2023-05-07T02:28:15;18.80;;;9.70;;
77016;SDS011;65949;53.132;17.930;2023-05-07T02:30:54;17.30;;;8.70;;
77016;SDS011;65949;53.132;17.930;2023-05-07T02:33:21;18.60;;;9.40;;
77016;SDS011;65949;53.132;17.930;2023-05-07T02:35:48;19.20;;;9.80;;
77016;SDS011;65949;53.132;17.930;2023-05-07T02:38:15;18.40;;;10.40;;
77016;SDS011;65949;53.132;17.930;2023-05-07T02:40:42;19.90;;;10.50;;
77016;SDS011;65949;53.132;17.930;2023-05-07T02:43:08;21.00;;;10.00;;
77016;SDS011;65949;53.132;17.930;2023-05-07T02:45:35;18.30;;;10.00;;
77016;SDS011;65949;53.132;17.930;2023-05-07T02:48:05;20.30;;;10.70;;
77016;SDS011;65949;53.132;17.930;2023-05-07T02:50:32;21.30;;;10.80;;
77016;SDS011;65949;53.132;17.930;2023-05-07T02:52:59;19.30;;;9.90;;
77016;SDS011;65949;53.132;17.930;2023-05-07T02:55:26;20.30;;;9.90;;
77016;SDS011;65949;53.132;17.930;2023-05-07T02:57:52;19.90;;;10.10;;
77016;SDS011;65949;53.132;17.930;2023-05-07T03:00:19;17.60;;;9.50;;
77016;SDS011;65949;53.132;17.930;2023-05-07T03:02:55;20.90;;;9.80;;
77016;SDS011;65949;53.132;17.930;2023-05-07T03:05:22;20.00;;;10.10;;
77016;SDS011;65949;53.132;17.930;2023-05-07T03:07:49;19.40;;;10.30;;
77016;SDS011;65949;53.132;17.930;2023-05-07T03:10:16;19.50;;;10.40;;
77016;SDS011;65949;53.132;17.930;2023-05-07T03:12:42;21.00;;;10.60;;
77016;SDS011;65949;53.132;17.930;2023-05-07T03:15:10;18.00;;;8.70;;
77016;SDS011;65949;53.132;17.930;2023-05-07T03:17:39;21.20;;;9.90;;
77016;SDS011;65949;53.132;17.930;2023-05-07T03:20:06;18.80;;;10.10;;
77016;SDS011;65949;53.132;17.930;2023-05-07T03:22:33;17.40;;;9.30;;
77016;SDS011;65949;53.132;17.930;2023-05-07T03:25:00;17.80;;;9.10;;
77016;SDS011;65949;53.132;17.930;2023-05-07T03:27:27;17.90;;;9.60;;
77016;SDS011;65949;53.132;17.930;2023-05-07T03:29:54;20.00;;;10.20;;
77016;SDS011;65949;53.132;17.930;2023-05-07T03:32:21;19.50;;;10.30;;
77016;SDS011;65949;53.132;17.930;2023-05-07T03:34:47;20.50;;;10.80;;
77016;SDS011;65949;53.132;17.930;2023-05-07T03:37:14;20.00;;;10.70;;
77016;SDS011;65949;53.132;17.930;2023-05-07T03:39:41;20.40;;;11.20;;
77016;SDS011;65949;53.132;17.930;2023-05-07T03:42:10;22.80;;;12.60;;
77016;SDS011;65949;53.132;17.930;2023-05-07T03:44:37;21.80;;;11.80;;
77016;SDS011;65949;53.132;17.930;2023-05-07T03:47:04;21.50;;;11.50;;
77016;SDS011;65949;53.132;17.930;2023-05-07T03:49:31;21.20;;;12.50;;
77016;SDS011;65949;53.132;17.930;2023-05-07T03:51:58;24.90;;;14.50;;
77016;SDS011;65949;53.132;17.930;2023-05-07T03:54:24;23.70;;;13.20;;
77016;SDS011;65949;53.132;17.930;2023-05-07T03:56:51;22.00;;;12.50;;
77016;SDS011;65949;53.132;17.930;2023-05-07T03:59:18;23.80;;;12.90;;
77016;SDS011;65949;53.132;17.930;2023-05-07T04:01:45;22.10;;;12.80;;
77016;SDS011;65949;53.132;17.930;2023-05-07T04:04:14;21.50;;;11.10;;
77016;SDS011;65949;53.132;17.930;2023-05-07T04:06:42;23.20;;;11.40;;
77016;SDS011;65949;53.132;17.930;2023-05-07T04:09:08;21.70;;;11.30;;
77016;SDS011;65949;53.132;17.930;2023-05-07T04:11:36;20.70;;;10.50;;
77016;SDS011;65949;53.132;17.930;2023-05-07T04:14:03;17.50;;;10.90;;
77016;SDS011;65949;53.132;17.930;2023-05-07T04:16:29;18.60;;;11.50;;
77016;SDS011;65949;53.132;17.930;2023-05-07T04:18:56;18.40;;;10.40;;
77016;SDS011;65949;53.132;17.930;2023-05-07T04:21:23;15.00;;;9.80;;
77016;SDS011;65949;53.132;17.930;2023-05-07T04:23:50;17.10;;;11.10;;
77016;SDS011;65949;53.132;17.930;2023-05-07T04:26:17;17.30;;;10.60;;
77016;SDS011;65949;53.132;17.930;2023-05-07T04:28:44;18.50;;;10.60;;
77016;SDS011;65949;53.132;17.930;2023-05-07T04:31:11;15.20;;;10.10;;
77016;SDS011;65949;53.132;17.930;2023-05-07T04:33:38;18.40;;;11.00;;
77016;SDS011;65949;53.132;17.930;2023-05-07T04:36:06;37.70;;;23.80;;
77016;SDS011;65949;53.132;17.930;2023-05-07T04:38:37;33.60;;;26.40;;
77016;SDS011;65949;53.132;17.930;2023-05-07T04:41:05;20.70;;;14.30;;
77016;SDS011;65949;53.132;17.930;2023-05-07T04:43:35;25.50;;;14.80;;
77016;SDS011;65949;53.132;17.930;2023-05-07T04:46:01;22.70;;;14.50;;
77016;SDS011;65949;53.132;17.930;2023-05-07T04:48:29;20.60;;;14.10;;
77016;SDS011;65949;53.132;17.930;2023-05-07T04:50:57;19.40;;;13.50;;
77016;SDS011;65949;53.132;17.930;2023-05-07T04:53:24;18.20;;;12.20;;
77016;SDS011;65949;53.132;17.930;2023-05-07T04:55:55;23.60;;;14.90;;
77016;SDS011;65949;53.132;17.930;2023-05-07T04:58:23;42.00;;;22.50;;
77016;SDS011;65949;53.132;17.930;2023-05-07T05:00:50;63.40;;;27.90;;
77016;SDS011;65949;53.132;17.930;2023-05-07T05:03:17;24.50;;;14.30;;
77016;SDS011;65949;53.132;17.930;2023-05-07T05:05:44;18.20;;;11.30;;
77016;SDS011;65949;53.132;17.930;2023-05-07T05:08:11;21.70;;;12.70;;
77016;SDS011;65949;53.132;17.930;2023-05-07T05:10:39;21.60;;;13.60;;
77016;SDS011;65949;53.132;17.930;2023-05-07T05:13:07;21.40;;;12.70;;
77016;SDS011;65949;53.132;17.930;2023-05-07T05:15:35;34.40;;;21.10;;
77016;SDS011;65949;53.132;17.930;2023-05-07T05:18:02;24.00;;;14.70;;
77016;SDS011;65949;53.132;17.930;2023-05-07T05:20:28;27.10;;;14.90;;
77016;SDS011;65949;53.132;17.930;2023-05-07T05:22:56;52.70;;;23.30;;
77016;SDS011;65949;53.132;17.930;2023-05-07T05:25:22;19.80;;;11.50;;
77016;SDS011;65949;53.132;17.930;2023-05-07T05:27:49;21.10;;;11.40;;
77016;SDS011;65949;53.132;17.930;2023-05-07T05:30:16;23.30;;;13.10;;
77016;SDS011;65949;53.132;17.930;2023-05-07T05:32:45;24.10;;;13.10;;
77016;SDS011;65949;53.132;17.930;2023-05-07T05:35:11;20.60;;;12.20;;
77016;SDS011;65949;53.132;17.930;2023-05-07T05:37:38;21.30;;;12.80;;
77016;SDS011;65949;53.132;17.930;2023-05-07T05:40:06;20.00;;;12.30;;
77016;SDS011;65949;53.132;17.930;2023-05-07T05:42:33;22.00;;;11.80;;
77016;SDS011;65949;53.132;17.930;2023-05-07T05:44:59;26.30;;;13.20;;
77016;SDS011;65949;53.132;17.930;2023-05-07T05:47:26;17.80;;;11.60;;
77016;SDS011;65949;53.132;17.930;2023-05-07T05:49:54;23.20;;;11.90;;
77016;SDS011;65949;53.132;17.930;2023-05-07T05:52:21;25.30;;;12.70;;
77016;SDS011;65949;53.132;17.930;2023-05-07T05:54:50;20.60;;;11.40;;
77016;SDS011;65949;53.132;17.930;2023-05-07T05:57:17;25.10;;;12.30;;
77016;SDS011;65949;53.132;17.930;2023-05-07T05:59:44;39.60;;;17.00;;
77016;SDS011;65949;53.132;17.930;2023-05-07T06:02:11;20.10;;;11.10;;
77016;SDS011;65949;53.132;17.930;2023-05-07T06:04:38;17.10;;;10.10;;
77016;SDS011;65949;53.132;17.930;2023-05-07T06:07:05;19.90;;;10.80;;
77016;SDS011;65949;53.132;17.930;2023-05-07T06:09:31;16.10;;;9.40;;
77016;SDS011;65949;53.132;17.930;2023-05-07T06:11:58;16.50;;;8.80;;
77016;SDS011;65949;53.132;17.930;2023-05-07T06:14:24;19.60;;;10.70;;
77016;SDS011;65949;53.132;17.930;2023-05-07T06:16:52;18.40;;;10.90;;
77016;SDS011;65949;53.132;17.930;2023-05-07T06:19:18;20.20;;;10.40;;
77016;SDS011;65949;53.132;17.930;2023-05-07T06:21:49;15.50;;;8.70;;
77016;SDS011;65949;53.132;17.930;2023-05-07T06:24:16;13.00;;;7.10;;
77016;SDS011;65949;53.132;17.930;2023-05-07T06:26:43;15.10;;;7.90;;
77016;SDS011;65949;53.132;17.930;2023-05-07T06:29:10;14.50;;;7.10;;
77016;SDS011;65949;53.132;17.930;2023-05-07T06:31:39;13.90;;;7.20;;
77016;SDS011;65949;53.132;17.930;2023-05-07T06:34:07;12.90;;;6.70;;
77016;SDS011;65949;53.132;17.930;2023-05-07T06:36:37;12.70;;;6.70;;
77016;SDS011;65949;53.132;17.930;2023-05-07T06:39:24;13.10;;;7.00;;
77016;SDS011;65949;53.132;17.930;2023-05-07T06:41:52;12.30;;;6.90;;
77016;SDS011;65949;53.132;17.930;2023-05-07T06:44:26;12.50;;;6.70;;
77016;SDS011;65949;53.132;17.930;2023-05-07T06:47:04;11.40;;;6.60;;
77016;SDS011;65949;53.132;17.930;2023-05-07T06:49:31;14.20;;;6.60;;
77016;SDS011;65949;53.132;17.930;2023-05-07T06:51:59;13.70;;;7.30;;
77016;SDS011;65949;53.132;17.930;2023-05-07T06:54:26;13.10;;;6.50;;
77016;SDS011;65949;53.132;17.930;2023-05-07T06:56:53;11.70;;;5.30;;
77016;SDS011;65949;53.132;17.930;2023-05-07T06:59:20;13.80;;;6.40;;
77016;SDS011;65949;53.132;17.930;2023-05-07T07:01:46;13.40;;;6.50;;
77016;SDS011;65949;53.132;17.930;2023-05-07T07:04:13;13.50;;;5.30;;
77016;SDS011;65949;53.132;17.930;2023-05-07T07:06:41;9.60;;;4.70;;
77016;SDS011;65949;53.132;17.930;2023-05-07T07:09:10;10.20;;;4.60;;
77016;SDS011;65949;53.132;17.930;2023-05-07T07:11:36;10.60;;;4.30;;
77016;SDS011;65949;53.132;17.930;2023-05-07T07:14:04;11.60;;;5.40;;
77016;SDS011;65949;53.132;17.930;2023-05-07T07:16:34;10.30;;;5.70;;
77016;SDS011;65949;53.132;17.930;2023-05-07T07:19:01;14.50;;;5.60;;
77016;SDS011;65949;53.132;17.930;2023-05-07T07:21:28;10.40;;;5.50;;
77016;SDS011;65949;53.132;17.930;2023-05-07T07:23:55;10.10;;;5.40;;
77016;SDS011;65949;53.132;17.930;2023-05-07T07:26:22;16.20;;;6.10;;
77016;SDS011;65949;53.132;17.930;2023-05-07T07:28:48;13.10;;;6.10;;
77016;SDS011;65949;53.132;17.930;2023-05-07T07:31:18;11.60;;;5.60;;
77016;SDS011;65949;53.132;17.930;2023-05-07T07:33:44;9.60;;;4.60;;
77016;SDS011;65949;53.132;17.930;2023-05-07T07:36:12;11.30;;;4.10;;
77016;SDS011;65949;53.132;17.930;2023-05-07T07:38:38;11.60;;;4.90;;
77016;SDS011;65949;53.132;17.930;2023-05-07T07:41:10;10.30;;;4.80;;
77016;SDS011;65949;53.132;17.930;2023-05-07T07:43:36;10.60;;;4.90;;
77016;SDS011;65949;53.132;17.930;2023-05-07T07:46:04;10.40;;;4.80;;
77016;SDS011;65949;53.132;17.930;2023-05-07T07:48:30;10.20;;;4.90;;
77016;SDS011;65949;53.132;17.930;2023-05-07T07:50:59;10.30;;;4.80;;
77016;SDS011;65949;53.132;17.930;2023-05-07T07:53:25;10.70;;;5.00;;
77016;SDS011;65949;53.132;17.930;2023-05-07T07:55:52;10.80;;;4.90;;
77016;SDS011;65949;53.132;17.930;2023-05-07T07:58:20;11.00;;;5.70;;
77016;SDS011;65949;53.132;17.930;2023-05-07T08:00:48;11.60;;;4.90;;
77016;SDS011;65949;53.132;17.930;2023-05-07T08:03:16;9.90;;;4.50;;
77016;SDS011;65949;53.132;17.930;2023-05-07T08:05:45;9.00;;;4.30;;
77016;SDS011;65949;53.132;17.930;2023-05-07T08:08:12;8.50;;;3.70;;
77016;SDS011;65949;53.132;17.930;2023-05-07T08:10:39;8.00;;;3.20;;
77016;SDS011;65949;53.132;17.930;2023-05-07T08:13:10;9.10;;;3.60;;
77016;SDS011;65949;53.132;17.930;2023-05-07T08:15:38;8.40;;;3.90;;
77016;SDS011;65949;53.132;17.930;2023-05-07T08:18:05;9.00;;;3.70;;
77016;SDS011;65949;53.132;17.930;2023-05-07T08:20:33;9.10;;;3.30;;
77016;SDS011;65949;53.132;17.930;2023-05-07T08:23:04;10.30;;;3.00;;
77016;SDS011;65949;53.132;17.930;2023-05-07T08:25:30;9.20;;;2.70;;
77016;SDS011;65949;53.132;17.930;2023-05-07T08:28:00;8.20;;;3.40;;
77016;SDS011;65949;53.132;17.930;2023-05-07T08:30:27;7.20;;;2.80;;
77016;SDS011;65949;53.132;17.930;2023-05-07T08:32:54;9.70;;;2.50;;
77016;SDS011;65949;53.132;17.930;2023-05-07T08:35:21;7.10;;;2.60;;
77016;SDS011;65949;53.132;17.930;2023-05-07T08:37:48;6.10;;;2.40;;
77016;SDS011;65949;53.132;17.930;2023-05-07T08:40:15;6.80;;;2.40;;
77016;SDS011;65949;53.132;17.930;2023-05-07T08:42:42;5.70;;;2.10;;
77016;SDS011;65949;53.132;17.930;2023-05-07T08:45:11;5.40;;;1.70;;
77016;SDS011;65949;53.132;17.930;2023-05-07T08:47:43;7.20;;;2.50;;
77016;SDS011;65949;53.132;17.930;2023-05-07T08:50:11;5.30;;;1.80;;
77016;SDS011;65949;53.132;17.930;2023-05-07T08:52:39;6.00;;;2.30;;
77016;SDS011;65949;53.132;17.930;2023-05-07T08:55:08;7.80;;;2.80;;
77016;SDS011;65949;53.132;17.930;2023-05-07T08:57:36;6.30;;;2.20;;
77016;SDS011;65949;53.132;17.930;2023-05-07T09:00:03;6.70;;;2.60;;
77016;SDS011;65949;53.132;17.930;2023-05-07T09:02:37;6.50;;;2.30;;
77016;SDS011;65949;53.132;17.930;2023-05-07T09:05:05;6.40;;;2.30;;
77016;SDS011;65949;53.132;17.930;2023-05-07T09:07:33;6.10;;;2.10;;
77016;SDS011;65949;53.132;17.930;2023-05-07T09:10:02;5.60;;;1.90;;
77016;SDS011;65949;53.132;17.930;2023-05-07T09:12:31;5.50;;;2.10;;
77016;SDS011;65949;53.132;17.930;2023-05-07T09:14:58;5.40;;;1.80;;
77016;SDS011;65949;53.132;17.930;2023-05-07T09:17:26;6.40;;;1.60;;
77016;SDS011;65949;53.132;17.930;2023-05-07T09:19:53;6.30;;;2.50;;
77016;SDS011;65949;53.132;17.930;2023-05-07T09:22:20;5.90;;;2.20;;
77016;SDS011;65949;53.132;17.930;2023-05-07T09:24:54;5.80;;;1.70;;
77016;SDS011;65949;53.132;17.930;2023-05-07T09:27:24;6.10;;;1.90;;
77016;SDS011;65949;53.132;17.930;2023-05-07T09:29:52;7.30;;;2.10;;
77016;SDS011;65949;53.132;17.930;2023-05-07T09:32:18;7.60;;;2.30;;
77016;SDS011;65949;53.132;17.930;2023-05-07T09:34:45;7.30;;;2.30;;
77016;SDS011;65949;53.132;17.930;2023-05-07T09:37:14;5.80;;;2.00;;
77016;SDS011;65949;53.132;17.930;2023-05-07T09:39:42;4.40;;;1.30;;
77016;SDS011;65949;53.132;17.930;2023-05-07T09:42:10;5.90;;;1.70;;
77016;SDS011;65949;53.132;17.930;2023-05-07T09:44:38;8.20;;;2.60;;
77016;SDS011;65949;53.132;17.930;2023-05-07T09:47:07;6.60;;;2.10;;
77016;SDS011;65949;53.132;17.930;2023-05-07T09:49:38;7.80;;;2.30;;
77016;SDS011;65949;53.132;17.930;2023-05-07T09:52:09;7.80;;;2.40;;
77016;SDS011;65949;53.132;17.930;2023-05-07T09:54:39;7.00;;;2.40;;
77016;SDS011;65949;53.132;17.930;2023-05-07T09:57:11;4.70;;;1.70;;
77016;SDS011;65949;53.132;17.930;2023-05-07T09:59:38;6.30;;;2.20;;
77016;SDS011;65949;53.132;17.930;2023-05-07T10:02:10;7.60;;;2.90;;
77016;SDS011;65949;53.132;17.930;2023-05-07T10:04:45;7.20;;;2.90;;
77016;SDS011;65949;53.132;17.930;2023-05-07T10:07:13;6.00;;;2.60;;
77016;SDS011;65949;53.132;17.930;2023-05-07T10:09:40;8.00;;;3.20;;
77016;SDS011;65949;53.132;17.930;2023-05-07T10:12:13;9.00;;;3.00;;
77016;SDS011;65949;53.132;17.930;2023-05-07T10:14:39;5.90;;;2.10;;
77016;SDS011;65949;53.132;17.930;2023-05-07T10:17:06;6.70;;;2.60;;
77016;SDS011;65949;53.132;17.930;2023-05-07T10:19:34;5.60;;;2.30;;
77016;SDS011;65949;53.132;17.930;2023-05-07T10:22:04;6.50;;;2.70;;
77016;SDS011;65949;53.132;17.930;2023-05-07T10:24:34;10.30;;;2.90;;
77016;SDS011;65949;53.132;17.930;2023-05-07T10:27:06;7.80;;;2.90;;
77016;SDS011;65949;53.132;17.930;2023-05-07T10:29:41;7.10;;;2.40;;
77016;SDS011;65949;53.132;17.930;2023-05-07T10:32:45;6.60;;;2.70;;
77016;SDS011;65949;53.132;17.930;2023-05-07T10:35:25;6.40;;;3.40;;
77016;SDS011;65949;53.132;17.930;2023-05-07T10:37:55;7.30;;;3.00;;
77016;SDS011;65949;53.132;17.930;2023-05-07T10:40:23;6.60;;;2.50;;
77016;SDS011;65949;53.132;17.930;2023-05-07T10:42:55;7.30;;;2.30;;
77016;SDS011;65949;53.132;17.930;2023-05-07T10:45:27;9.10;;;2.60;;
77016;SDS011;65949;53.132;17.930;2023-05-07T10:48:05;6.10;;;2.30;;
77016;SDS011;65949;53.132;17.930;2023-05-07T10:50:32;7.50;;;2.60;;
77016;SDS011;65949;53.132;17.930;2023-05-07T10:53:20;6.60;;;2.70;;
77016;SDS011;65949;53.132;17.930;2023-05-07T10:58:50;10.50;;;3.00;;
77016;SDS011;65949;53.132;17.930;2023-05-07T11:05:18;10.70;;;3.70;;
77016;SDS011;65949;53.132;17.930;2023-05-07T11:07:56;7.40;;;2.80;;
77016;SDS011;65949;53.132;17.930;2023-05-07T11:13:44;5.40;;;2.40;;
77016;SDS011;65949;53.132;17.930;2023-05-07T11:16:21;7.30;;;2.60;;
77016;SDS011;65949;53.132;17.930;2023-05-07T11:18:53;6.90;;;2.70;;
77016;SDS011;65949;53.132;17.930;2023-05-07T11:21:40;5.20;;;2.10;;
77016;SDS011;65949;53.132;17.930;2023-05-07T11:24:22;6.60;;;2.60;;
77016;SDS011;65949;53.132;17.930;2023-05-07T11:26:59;6.20;;;3.00;;
77016;SDS011;65949;53.132;17.930;2023-05-07T11:29:27;6.50;;;3.20;;
77016;SDS011;65949;53.132;17.930;2023-05-07T11:32:15;11.40;;;3.40;;
77016;SDS011;65949;53.132;17.930;2023-05-07T11:34:54;8.70;;;3.00;;
77016;SDS011;65949;53.132;17.930;2023-05-07T11:37:22;6.60;;;3.30;;
77016;SDS011;65949;53.132;17.930;2023-05-07T11:40:06;7.20;;;2.50;;
77016;SDS011;65949;53.132;17.930;2023-05-07T11:42:38;9.00;;;3.60;;
77016;SDS011;65949;53.132;17.930;2023-05-07T11:45:07;9.60;;;3.30;;
77016;SDS011;65949;53.132;17.930;2023-05-07T11:47:34;6.10;;;2.90;;
77016;SDS011;65949;53.132;17.930;2023-05-07T11:50:06;7.20;;;2.80;;
77016;SDS011;65949;53.132;17.930;2023-05-07T11:52:34;7.20;;;2.70;;
77016;SDS011;65949;53.132;17.930;2023-05-07T11:55:02;6.80;;;2.50;;
77016;SDS011;65949;53.132;17.930;2023-05-07T11:57:32;6.50;;;2.90;;
77016;SDS011;65949;53.132;17.930;2023-05-07T12:00:00;5.70;;;2.30;;
77016;SDS011;65949;53.132;17.930;2023-05-07T12:02:39;6.80;;;2.80;;
77016;SDS011;65949;53.132;17.930;2023-05-07T12:05:05;6.50;;;2.90;;
77016;SDS011;65949;53.132;17.930;2023-05-07T12:07:35;6.70;;;2.80;;
77016;SDS011;65949;53.132;17.930;2023-05-07T12:10:05;8.00;;;2.70;;
77016;SDS011;65949;53.132;17.930;2023-05-07T12:12:39;7.60;;;2.80;;
77016;SDS011;65949;53.132;17.930;2023-05-07T12:15:15;7.90;;;2.80;;
77016;SDS011;65949;53.132;17.930;2023-05-07T12:17:42;8.40;;;3.10;;
77016;SDS011;65949;53.132;17.930;2023-05-07T12:20:09;7.90;;;2.80;;
77016;SDS011;65949;53.132;17.930;2023-05-07T12:22:36;9.70;;;3.30;;
77016;SDS011;65949;53.132;17.930;2023-05-07T12:25:03;6.40;;;2.70;;
77016;SDS011;65949;53.132;17.930;2023-05-07T12:27:30;7.00;;;2.90;;
77016;SDS011;65949;53.132;17.930;2023-05-07T12:29:57;7.30;;;3.40;;
77016;SDS011;65949;53.132;17.930;2023-05-07T12:32:25;6.70;;;2.80;;
77016;SDS011;65949;53.132;17.930;2023-05-07T12:34:52;6.10;;;3.00;;
77016;SDS011;65949;53.132;17.930;2023-05-07T12:37:23;7.40;;;2.90;;
77016;SDS011;65949;53.132;17.930;2023-05-07T12:40:08;6.00;;;2.60;;
77016;SDS011;65949;53.132;17.930;2023-05-07T12:42:37;6.00;;;2.70;;
77016;SDS011;65949;53.132;17.930;2023-05-07T12:45:08;7.40;;;3.00;;
77016;SDS011;65949;53.132;17.930;2023-05-07T12:47:39;8.90;;;4.20;;
77016;SDS011;65949;53.132;17.930;2023-05-07T12:50:06;6.60;;;2.20;;
77016;SDS011;65949;53.132;17.930;2023-05-07T12:52:33;7.20;;;2.70;;
77016;SDS011;65949;53.132;17.930;2023-05-07T12:55:07;7.20;;;2.60;;
77016;SDS011;65949;53.132;17.930;2023-05-07T12:57:38;7.40;;;2.40;;
77016;SDS011;65949;53.132;17.930;2023-05-07T13:00:06;7.50;;;2.40;;
77016;SDS011;65949;53.132;17.930;2023-05-07T13:02:33;5.80;;;2.60;;
77016;SDS011;65949;53.132;17.930;2023-05-07T13:05:01;7.60;;;2.10;;
77016;SDS011;65949;53.132;17.930;2023-05-07T13:07:27;5.60;;;2.20;;
77016;SDS011;65949;53.132;17.930;2023-05-07T13:09:54;8.20;;;3.00;;
77016;SDS011;65949;53.132;17.930;2023-05-07T13:12:20;7.70;;;3.60;;
77016;SDS011;65949;53.132;17.930;2023-05-07T13:22:03;6.60;;;2.40;;
77016;SDS011;65949;53.132;17.930;2023-05-07T13:24:30;6.20;;;2.30;;
77016;SDS011;65949;53.132;17.930;2023-05-07T13:26:57;5.80;;;2.20;;
77016;SDS011;65949;53.132;17.930;2023-05-07T13:29:23;5.50;;;2.10;;
77016;SDS011;65949;53.132;17.930;2023-05-07T13:31:55;6.20;;;2.30;;
77016;SDS011;65949;53.132;17.930;2023-05-07T13:34:22;6.10;;;2.30;;
77016;SDS011;65949;53.132;17.930;2023-05-07T13:36:49;6.10;;;2.40;;
77016;SDS011;65949;53.132;17.930;2023-05-07T13:39:16;5.90;;;2.40;;
77016;SDS011;65949;53.132;17.930;2023-05-07T13:41:43;5.60;;;2.10;;
77016;SDS011;65949;53.132;17.930;2023-05-07T13:44:09;5.40;;;2.60;;
77016;SDS011;65949;53.132;17.930;2023-05-07T13:46:36;8.80;;;2.40;;
77016;SDS011;65949;53.132;17.930;2023-05-07T13:49:03;6.30;;;2.30;;
77016;SDS011;65949;53.132;17.930;2023-05-07T13:51:29;5.40;;;2.30;;
77016;SDS011;65949;53.132;17.930;2023-05-07T13:53:56;6.70;;;2.90;;
77016;SDS011;65949;53.132;17.930;2023-05-07T13:56:24;9.30;;;4.10;;
77016;SDS011;65949;53.132;17.930;2023-05-07T13:58:51;5.00;;;2.20;;
77016;SDS011;65949;53.132;17.930;2023-05-07T14:01:17;8.10;;;3.10;;
77016;SDS011;65949;53.132;17.930;2023-05-07T14:03:44;8.10;;;3.10;;
77016;SDS011;65949;53.132;17.930;2023-05-07T14:06:11;5.50;;;2.20;;
77016;SDS011;65949;53.132;17.930;2023-05-07T14:08:37;7.40;;;2.00;;
77016;SDS011;65949;53.132;17.930;2023-05-07T14:11:04;7.00;;;2.40;;
77016;SDS011;65949;53.132;17.930;2023-05-07T14:13:30;6.10;;;2.70;;
77016;SDS011;65949;53.132;17.930;2023-05-07T14:15:57;5.70;;;2.40;;
77016;SDS011;65949;53.132;17.930;2023-05-07T14:18:24;6.30;;;2.40;;
77016;SDS011;65949;53.132;17.930;2023-05-07T14:20:51;6.40;;;2.40;;
77016;SDS011;65949;53.132;17.930;2023-05-07T14:23:18;6.20;;;2.50;;
77016;SDS011;65949;53.132;17.930;2023-05-07T14:25:45;6.30;;;2.80;;
77016;SDS011;65949;53.132;17.930;2023-05-07T14:28:13;5.70;;;2.30;;
77016;SDS011;65949;53.132;17.930;2023-05-07T14:30:40;6.20;;;2.40;;
77016;SDS011;65949;53.132;17.930;2023-05-07T14:33:07;6.60;;;2.00;;
77016;SDS011;65949;53.132;17.930;2023-05-07T14:35:33;6.90;;;2.80;;
77016;SDS011;65949;53.132;17.930;2023-05-07T14:38:00;6.80;;;2.80;;
77016;SDS011;65949;53.132;17.930;2023-05-07T14:40:26;7.90;;;2.10;;
77016;SDS011;65949;53.132;17.930;2023-05-07T14:42:53;7.10;;;2.50;;
77016;SDS011;65949;53.132;17.930;2023-05-07T14:45:20;6.00;;;2.30;;
77016;SDS011;65949;53.132;17.930;2023-05-07T14:47:47;6.30;;;2.50;;